createdAt,value
2017-12-17T00:01:17.813Z,48.60
2017-12-17T00:03:46.038Z,48.60
2017-12-17T00:06:14.700Z,48.60
2017-12-17T00:08:42.932Z,48.60
2017-12-17T00:11:11.170Z,48.60
2017-12-17T00:13:39.847Z,48.60
2017-12-17T00:16:08.480Z,48.60
2017-12-17T00:18:36.712Z,48.60
2017-12-17T00:21:05.400Z,48.60
2017-12-17T00:23:34.024Z,48.40
2017-12-17T00:26:02.252Z,48.40
2017-12-17T00:28:30.915Z,48.40
2017-12-17T00:30:59.144Z,48.40
2017-12-17T00:33:27.667Z,48.40
2017-12-17T00:35:55.929Z,48.40
2017-12-17T00:38:24.161Z,48.40
2017-12-17T00:40:52.404Z,48.40
2017-12-17T00:43:20.656Z,48.40
2017-12-17T00:45:48.884Z,48.60
2017-12-17T00:48:17.120Z,48.40
2017-12-17T00:50:45.389Z,48.40
2017-12-17T00:53:13.873Z,48.40
2017-12-17T00:55:42.109Z,48.40
2017-12-17T00:58:10.376Z,48.40
2017-12-17T01:00:38.607Z,48.40
2017-12-17T01:03:07.089Z,48.40
2017-12-17T01:05:35.340Z,48.30
2017-12-17T01:08:03.572Z,48.30
2017-12-17T01:10:32.192Z,48.30
2017-12-17T01:13:00.476Z,48.30
2017-12-17T01:15:28.704Z,48.30
2017-12-17T01:17:57.328Z,48.30
2017-12-17T01:20:25.722Z,48.30
2017-12-17T01:22:53.931Z,48.30
2017-12-17T01:25:22.564Z,48.30
2017-12-17T01:27:50.831Z,48.30
2017-12-17T01:30:19.061Z,48.30
2017-12-17T01:32:47.292Z,48.30
2017-12-17T01:35:15.797Z,48.30
2017-12-17T01:37:44.024Z,48.30
2017-12-17T01:40:12.256Z,48.30
2017-12-17T01:42:40.520Z,48.30
2017-12-17T01:45:08.756Z,48.30
2017-12-17T01:47:36.993Z,48.30
2017-12-17T01:50:05.272Z,48.10
2017-12-17T01:52:33.496Z,48.30
2017-12-17T01:55:01.720Z,48.30
2017-12-17T01:57:30.443Z,48.30
2017-12-17T01:59:58.616Z,48.30
2017-12-17T02:02:26.847Z,48.30
2017-12-17T02:04:55.119Z,48.30
2017-12-17T02:07:23.372Z,48.10
2017-12-17T02:09:51.610Z,48.10
2017-12-17T02:12:19.847Z,48.30
2017-12-17T02:14:48.077Z,48.10
2017-12-17T02:17:16.307Z,48.30
2017-12-17T02:19:44.984Z,48.30
2017-12-17T02:22:13.226Z,48.30
2017-12-17T02:24:41.489Z,48.10
2017-12-17T02:27:09.756Z,48.30
2017-12-17T02:29:37.990Z,48.10
2017-12-17T02:32:06.212Z,48.30
2017-12-17T02:34:34.495Z,48.10
2017-12-17T02:37:02.724Z,48.10
2017-12-17T02:39:31.353Z,48.10
2017-12-17T02:41:59.592Z,48.10
2017-12-17T02:44:28.219Z,48.30
2017-12-17T02:46:56.465Z,48.30
2017-12-17T02:49:24.741Z,48.10
2017-12-17T02:51:52.977Z,48.30
2017-12-17T02:54:21.209Z,48.10
2017-12-17T02:56:49.489Z,48.10
2017-12-17T02:59:17.722Z,48.30
2017-12-17T03:01:46.339Z,48.30
2017-12-17T03:04:14.609Z,48.30
2017-12-17T03:06:42.841Z,48.10
2017-12-17T03:09:11.068Z,48.10
2017-12-17T03:11:39.584Z,48.10
2017-12-17T03:14:07.820Z,48.10
2017-12-17T03:16:36.044Z,48.10
2017-12-17T03:19:04.309Z,48.10
2017-12-17T03:21:32.607Z,48.10
2017-12-17T03:24:00.856Z,48.10
2017-12-17T03:26:29.216Z,48.10
2017-12-17T03:28:57.452Z,48.10
2017-12-17T03:31:26.116Z,48.10
2017-12-17T03:33:54.383Z,48.30
2017-12-17T03:36:22.617Z,48.10
2017-12-17T03:38:50.844Z,48.10
2017-12-17T03:41:19.140Z,48.10
2017-12-17T03:43:47.767Z,48.10
2017-12-17T03:46:16.004Z,48.10
2017-12-17T03:48:44.956Z,48.10
2017-12-17T03:51:13.184Z,48.10
2017-12-17T03:53:41.711Z,48.10
2017-12-17T03:56:10.296Z,48.10
2017-12-17T03:58:38.664Z,48.10
2017-12-17T04:01:06.878Z,48.10
2017-12-17T04:03:35.536Z,48.10
2017-12-17T04:06:03.772Z,48.10
2017-12-17T04:08:32.000Z,48.10
2017-12-17T04:11:00.699Z,48.10
2017-12-17T04:13:29.315Z,48.10
2017-12-17T04:15:57.544Z,48.10
2017-12-17T04:18:25.812Z,48.10
2017-12-17T04:20:54.039Z,48.10
2017-12-17T04:23:22.272Z,48.10
2017-12-17T04:25:50.529Z,48.10
2017-12-17T04:28:18.761Z,48.10
2017-12-17T04:30:47.760Z,48.10
2017-12-17T04:33:16.019Z,48.10
2017-12-17T04:35:44.249Z,48.10
2017-12-17T04:38:12.480Z,48.10
2017-12-17T04:40:40.730Z,48.10
2017-12-17T04:43:08.953Z,48.10
2017-12-17T04:45:37.183Z,48.10
2017-12-17T04:48:05.836Z,48.10
2017-12-17T04:50:34.064Z,48.10
2017-12-17T04:53:02.296Z,48.10
2017-12-17T04:55:30.541Z,48.10
2017-12-17T04:57:58.775Z,48.10
2017-12-17T05:00:27.005Z,48.10
2017-12-17T05:02:55.273Z,48.10
2017-12-17T05:05:23.500Z,48.10
2017-12-17T05:07:51.732Z,48.30
2017-12-17T05:10:20.010Z,48.10
2017-12-17T05:12:48.235Z,48.10
2017-12-17T05:15:16.461Z,48.10
2017-12-17T05:17:44.724Z,48.10
2017-12-17T05:20:12.953Z,48.10
2017-12-17T05:22:41.184Z,48.10
2017-12-17T05:25:09.440Z,48.10
2017-12-17T05:27:37.672Z,48.10
2017-12-17T05:30:06.299Z,48.10
2017-12-17T05:32:34.567Z,48.10
2017-12-17T05:35:02.793Z,48.10
2017-12-17T05:37:31.425Z,48.10
2017-12-17T05:39:59.670Z,48.10
2017-12-17T05:42:28.297Z,48.00
2017-12-17T05:44:56.524Z,48.10
2017-12-17T05:47:25.160Z,48.10
2017-12-17T05:49:53.657Z,48.10
2017-12-17T05:52:21.911Z,48.10
2017-12-17T05:54:50.140Z,48.00
2017-12-17T05:57:18.767Z,48.10
2017-12-17T05:59:47.035Z,48.10
2017-12-17T06:02:15.292Z,48.10
2017-12-17T06:04:43.535Z,48.10
2017-12-17T06:07:12.189Z,48.10
2017-12-17T06:09:40.416Z,48.10
2017-12-17T06:12:09.046Z,48.00
2017-12-17T06:14:37.540Z,48.00
2017-12-17T06:17:05.776Z,48.00
2017-12-17T06:19:34.008Z,48.10
2017-12-17T06:22:02.296Z,48.00
2017-12-17T06:24:30.924Z,48.00
2017-12-17T06:26:59.174Z,48.00
2017-12-17T06:29:27.407Z,48.00
2017-12-17T06:31:55.638Z,48.00
2017-12-17T06:34:23.867Z,48.00
2017-12-17T06:36:52.139Z,48.00
2017-12-17T06:39:20.368Z,48.00
2017-12-17T06:41:48.600Z,48.00
2017-12-17T06:44:17.248Z,48.00
2017-12-17T06:46:45.480Z,48.00
2017-12-17T06:49:14.100Z,48.00
2017-12-17T06:51:42.344Z,48.00
2017-12-17T06:54:10.575Z,48.00
2017-12-17T06:56:38.832Z,48.00
2017-12-17T06:59:07.065Z,48.00
2017-12-17T07:01:35.687Z,48.00
2017-12-17T07:04:03.956Z,48.00
2017-12-17T07:06:32.207Z,48.00
2017-12-17T07:09:00.444Z,48.00
2017-12-17T07:11:28.720Z,48.00
2017-12-17T07:13:56.968Z,48.00
2017-12-17T07:16:25.183Z,48.00
2017-12-17T07:18:53.844Z,48.00
2017-12-17T07:21:22.078Z,48.00
2017-12-17T07:23:50.359Z,48.00
2017-12-17T07:26:18.578Z,48.00
2017-12-17T07:28:46.807Z,48.00
2017-12-17T07:31:15.044Z,47.80
2017-12-17T07:33:43.692Z,47.80
2017-12-17T07:36:11.920Z,47.80
2017-12-17T07:38:40.582Z,47.80
2017-12-17T07:41:08.816Z,47.80
2017-12-17T07:43:37.056Z,47.80
2017-12-17T07:46:05.680Z,47.80
2017-12-17T07:48:33.981Z,47.80
2017-12-17T07:51:02.214Z,47.80
2017-12-17T07:53:30.440Z,55.40
2017-12-17T07:55:59.551Z,51.20
2017-12-17T07:58:28.005Z,51.10
2017-12-17T08:00:56.275Z,50.90
2017-12-17T08:03:24.504Z,50.50
2017-12-17T08:05:52.751Z,50.20
2017-12-17T08:08:21.011Z,50.10
2017-12-17T08:10:49.240Z,49.90
2017-12-17T08:13:17.504Z,49.60
2017-12-17T08:15:45.774Z,49.50
2017-12-17T08:18:14.212Z,49.30
2017-12-17T08:20:42.440Z,49.20
2017-12-17T08:23:10.706Z,49.20
2017-12-17T08:25:38.944Z,49.20
2017-12-17T08:28:07.180Z,49.00
2017-12-17T08:30:35.701Z,48.90
2017-12-17T08:33:03.919Z,48.70
2017-12-17T08:35:32.148Z,48.60
2017-12-17T08:38:00.420Z,48.60
2017-12-17T08:40:28.644Z,48.40
2017-12-17T08:42:56.874Z,48.30
2017-12-17T08:45:25.147Z,48.40
2017-12-17T08:47:53.396Z,48.30
2017-12-17T08:50:21.629Z,48.40
2017-12-17T08:52:50.268Z,48.30
2017-12-17T08:55:18.500Z,48.30
2017-12-17T08:57:46.764Z,48.30
2017-12-17T09:00:15.393Z,48.00
2017-12-17T09:02:43.624Z,48.00
2017-12-17T09:05:12.584Z,48.10
2017-12-17T09:07:40.820Z,48.10
2017-12-17T09:10:09.068Z,48.00
2017-12-17T09:12:37.748Z,48.00
2017-12-17T09:15:06.380Z,48.00
2017-12-17T09:17:34.616Z,48.00
2017-12-17T09:20:03.291Z,47.80
2017-12-17T09:22:31.924Z,47.70
2017-12-17T09:25:00.165Z,47.70
2017-12-17T09:27:28.411Z,47.50
2017-12-17T09:29:56.647Z,47.40
2017-12-17T09:32:24.941Z,47.30
2017-12-17T09:34:53.431Z,47.10
2017-12-17T09:37:21.661Z,47.10
2017-12-17T09:39:49.919Z,56.30
2017-12-17T09:42:18.529Z,55.80
2017-12-17T09:44:46.816Z,55.80
2017-12-17T09:47:15.033Z,57.40
2017-12-17T09:49:43.601Z,55.80
2017-12-17T09:52:11.874Z,54.10
2017-12-17T09:54:40.107Z,52.70
2017-12-17T09:57:08.352Z,52.40
2017-12-17T09:59:37.323Z,61.30
2017-12-17T10:02:05.553Z,61.30
2017-12-17T10:04:33.782Z,58.60
2017-12-17T10:07:02.377Z,55.80
2017-12-17T10:09:30.792Z,54.20
2017-12-17T10:11:59.040Z,53.50
2017-12-17T10:14:27.705Z,52.40
2017-12-17T10:16:55.970Z,52.40
2017-12-17T10:19:24.206Z,52.10
2017-12-17T10:21:52.502Z,51.70
2017-12-17T10:24:20.741Z,51.40
2017-12-17T10:26:48.968Z,51.20
2017-12-17T10:29:17.218Z,51.20
2017-12-17T10:31:45.726Z,51.40
2017-12-17T10:34:14.311Z,50.90
2017-12-17T10:36:43.144Z,50.40
2017-12-17T10:39:11.384Z,49.90
2017-12-17T10:41:39.643Z,49.50
2017-12-17T10:44:07.882Z,49.20
2017-12-17T10:46:36.123Z,48.90
2017-12-17T10:49:04.382Z,48.30
2017-12-17T10:51:32.649Z,47.80
2017-12-17T10:54:00.866Z,47.50
2017-12-17T10:56:29.523Z,47.10
2017-12-17T10:58:57.778Z,47.10
2017-12-17T11:01:25.997Z,47.00
2017-12-17T11:03:54.746Z,47.30
2017-12-17T11:06:22.964Z,47.30
2017-12-17T11:08:51.296Z,47.10
2017-12-17T11:11:19.541Z,53.00
2017-12-17T11:13:47.775Z,55.80
2017-12-17T11:16:16.007Z,56.00
2017-12-17T11:18:44.269Z,55.70
2017-12-17T11:21:12.519Z,53.50
2017-12-17T11:23:41.136Z,51.40
2017-12-17T11:26:09.410Z,51.20
2017-12-17T11:28:37.645Z,49.90
2017-12-17T11:31:06.283Z,48.00
2017-12-17T11:33:34.524Z,48.00
2017-12-17T11:36:02.756Z,47.40
2017-12-17T11:38:31.015Z,47.70
2017-12-17T11:40:59.270Z,48.00
2017-12-17T11:43:27.542Z,48.30
2017-12-17T11:45:55.820Z,48.90
2017-12-17T11:48:24.119Z,49.30
2017-12-17T11:50:52.342Z,50.40
2017-12-17T11:53:20.589Z,49.90
2017-12-17T11:55:49.100Z,49.20
2017-12-17T11:58:17.344Z,49.00
2017-12-17T12:00:45.576Z,50.40
2017-12-17T12:03:13.840Z,51.20
2017-12-17T12:05:42.071Z,50.50
2017-12-17T12:08:10.915Z,55.20
2017-12-17T12:10:39.200Z,55.20
2017-12-17T12:13:07.428Z,55.40
2017-12-17T12:15:36.073Z,56.60
2017-12-17T12:18:04.349Z,56.60
2017-12-17T12:20:32.590Z,56.70
2017-12-17T12:23:01.120Z,56.60
2017-12-17T12:25:29.365Z,55.40
2017-12-17T12:27:57.606Z,54.50
2017-12-17T12:30:26.244Z,53.90
2017-12-17T12:32:54.642Z,53.90
2017-12-17T12:35:22.861Z,52.70
2017-12-17T12:37:51.121Z,52.10
2017-12-17T12:40:19.380Z,53.20
2017-12-17T12:42:48.013Z,55.40
2017-12-17T12:45:16.243Z,55.40
2017-12-17T12:47:44.505Z,54.50
2017-12-17T12:50:12.739Z,53.30
2017-12-17T12:52:40.984Z,52.70
2017-12-17T12:55:09.224Z,53.60
2017-12-17T12:57:37.504Z,53.30
2017-12-17T13:00:05.780Z,53.00
2017-12-17T13:02:34.009Z,52.40
2017-12-17T13:05:02.246Z,52.00
2017-12-17T13:07:30.936Z,51.40
2017-12-17T13:09:59.571Z,50.90
2017-12-17T13:12:27.796Z,50.90
2017-12-17T13:14:56.463Z,50.50
2017-12-17T13:17:24.718Z,50.50
2017-12-17T13:19:52.938Z,50.20
2017-12-17T13:22:21.575Z,49.80
2017-12-17T13:24:49.804Z,49.80
2017-12-17T13:27:18.040Z,49.60
2017-12-17T13:29:46.522Z,49.60
2017-12-17T13:32:14.760Z,49.50
2017-12-17T13:34:43.040Z,49.50
2017-12-17T13:37:11.296Z,49.30
2017-12-17T13:39:39.532Z,49.30
2017-12-17T13:42:07.772Z,49.30
2017-12-17T13:44:36.013Z,49.00
2017-12-17T13:47:04.239Z,49.00
2017-12-17T13:49:32.587Z,48.90
2017-12-17T13:52:01.284Z,48.70
2017-12-17T13:54:29.508Z,48.70
2017-12-17T13:56:58.152Z,48.60
2017-12-17T13:59:26.384Z,48.60
2017-12-17T14:01:54.677Z,48.60
2017-12-17T14:04:22.929Z,48.40
2017-12-17T14:06:51.558Z,48.40
2017-12-17T14:09:19.800Z,48.40
2017-12-17T14:11:48.073Z,48.40
2017-12-17T14:14:16.320Z,48.40
2017-12-17T14:16:44.559Z,48.40
2017-12-17T14:19:13.159Z,48.40
2017-12-17T14:21:41.405Z,48.60
2017-12-17T14:24:09.637Z,48.60
2017-12-17T14:26:38.288Z,48.40
2017-12-17T14:29:06.517Z,48.40
2017-12-17T14:31:35.179Z,48.40
2017-12-17T14:34:03.413Z,48.40
2017-12-17T14:36:31.644Z,48.60
2017-12-17T14:39:01.107Z,48.60
2017-12-17T14:41:29.343Z,48.60
2017-12-17T14:43:57.582Z,48.40
2017-12-17T14:46:25.829Z,48.40
2017-12-17T14:48:54.076Z,48.60
2017-12-17T14:51:22.595Z,48.30
2017-12-17T14:53:50.832Z,48.40
2017-12-17T14:56:19.077Z,48.40
2017-12-17T14:58:47.340Z,48.40
2017-12-17T15:01:16.324Z,48.40
2017-12-17T15:03:44.594Z,48.40
2017-12-17T15:06:12.828Z,48.30
2017-12-17T15:08:41.076Z,48.30
2017-12-17T15:11:09.713Z,48.30
2017-12-17T15:13:37.986Z,48.30
2017-12-17T15:16:06.208Z,48.30
2017-12-17T15:18:34.832Z,48.30
2017-12-17T15:21:03.088Z,48.30
2017-12-17T15:23:31.321Z,48.30
2017-12-17T15:25:59.555Z,48.70
2017-12-17T15:28:27.812Z,48.70
2017-12-17T15:30:56.036Z,48.60
2017-12-17T15:33:24.317Z,48.60
2017-12-17T15:35:52.656Z,48.60
2017-12-17T15:38:20.884Z,48.40
2017-12-17T15:40:49.115Z,48.40
2017-12-17T15:43:17.361Z,48.40
2017-12-17T15:45:45.596Z,48.30
2017-12-17T15:48:13.828Z,48.10
2017-12-17T15:50:42.067Z,48.30
2017-12-17T15:53:10.716Z,48.10
2017-12-17T15:55:39.094Z,48.10
2017-12-17T15:58:07.335Z,48.10
2017-12-17T16:00:35.852Z,48.10
2017-12-17T16:03:04.065Z,48.30
2017-12-17T16:05:32.725Z,49.20
2017-12-17T16:08:00.950Z,49.20
2017-12-17T16:10:29.184Z,49.30
2017-12-17T16:12:57.463Z,50.70
2017-12-17T16:15:25.704Z,53.00
2017-12-17T16:17:53.955Z,50.70
2017-12-17T16:20:22.200Z,50.80
2017-12-17T16:22:50.839Z,50.10
2017-12-17T16:25:19.336Z,50.10
2017-12-17T16:27:47.606Z,49.50
2017-12-17T16:30:15.849Z,51.10
2017-12-17T16:32:44.471Z,54.80
2017-12-17T16:35:12.708Z,51.80
2017-12-17T16:37:41.017Z,50.80
2017-12-17T16:40:09.271Z,50.70
2017-12-17T16:42:37.504Z,50.10
2017-12-17T16:45:06.133Z,49.50
2017-12-17T16:47:34.612Z,49.60
2017-12-17T16:50:02.909Z,49.50
2017-12-17T16:52:31.127Z,49.30
2017-12-17T16:54:59.774Z,49.30
2017-12-17T16:57:28.004Z,49.30
2017-12-17T16:59:57.156Z,49.50
2017-12-17T17:02:25.415Z,49.20
2017-12-17T17:04:53.654Z,49.20
2017-12-17T17:07:21.881Z,49.00
2017-12-17T17:09:50.128Z,48.90
2017-12-17T17:12:18.370Z,48.70
2017-12-17T17:14:46.607Z,48.70
2017-12-17T17:17:14.860Z,48.60
2017-12-17T17:19:43.094Z,48.60
2017-12-17T17:22:11.425Z,48.40
2017-12-17T17:24:39.684Z,48.40
2017-12-17T17:27:07.929Z,48.40
2017-12-17T17:29:36.160Z,48.30
2017-12-17T17:32:04.737Z,48.30
2017-12-17T17:34:32.968Z,48.10
2017-12-17T17:37:01.224Z,52.00
2017-12-17T17:39:29.875Z,49.90
2017-12-17T17:41:58.103Z,50.10
2017-12-17T17:44:26.339Z,49.90
2017-12-17T17:46:54.612Z,49.60
2017-12-17T17:49:22.903Z,49.50
2017-12-17T17:51:51.129Z,49.30
2017-12-17T17:54:19.375Z,49.20
2017-12-17T17:56:48.069Z,49.00
2017-12-17T17:59:16.591Z,48.90
2017-12-17T18:01:44.843Z,48.70
2017-12-17T18:04:13.076Z,49.50
2017-12-17T18:06:41.747Z,49.80
2017-12-17T18:09:09.991Z,49.80
2017-12-17T18:11:38.249Z,49.60
2017-12-17T18:14:06.508Z,49.30
2017-12-17T18:16:34.739Z,49.20
2017-12-17T18:19:03.019Z,49.00
2017-12-17T18:21:31.511Z,49.00
2017-12-17T18:23:59.768Z,48.90
2017-12-17T18:26:28.012Z,48.70
2017-12-17T18:28:56.244Z,48.60
2017-12-17T18:31:24.902Z,48.60
2017-12-17T18:33:53.176Z,48.60
2017-12-17T18:36:21.415Z,48.40
2017-12-17T18:38:49.680Z,48.40
2017-12-17T18:41:17.924Z,48.40
2017-12-17T18:43:46.183Z,48.40
2017-12-17T18:46:14.453Z,48.40
2017-12-17T18:48:42.727Z,48.40
2017-12-17T18:51:11.121Z,54.30
2017-12-17T18:53:39.777Z,54.10
2017-12-17T18:56:08.054Z,54.10
2017-12-17T18:58:36.480Z,54.10
2017-12-17T19:01:05.116Z,54.30
2017-12-17T19:03:33.527Z,54.30
2017-12-17T19:06:01.769Z,50.40
2017-12-17T19:08:30.028Z,51.80
2017-12-17T19:10:58.305Z,52.10
2017-12-17T19:13:26.548Z,50.50
2017-12-17T19:15:55.215Z,48.90
2017-12-17T19:18:23.523Z,48.90
2017-12-17T19:20:52.183Z,45.30
2017-12-17T19:23:20.436Z,45.30
2017-12-17T19:25:48.696Z,44.90
2017-12-17T19:28:16.931Z,44.90
2017-12-17T19:30:45.332Z,45.00
2017-12-17T19:33:13.576Z,44.60
2017-12-17T19:35:42.230Z,45.60
2017-12-17T19:38:10.583Z,45.60
2017-12-17T19:40:38.894Z,45.80
2017-12-17T19:43:07.473Z,46.10
2017-12-17T19:45:35.801Z,58.00
2017-12-17T19:48:04.040Z,54.90
2017-12-17T19:50:32.493Z,52.40
2017-12-17T19:53:00.906Z,45.50
2017-12-17T19:55:29.550Z,45.20
2017-12-17T19:57:57.785Z,45.00
2017-12-17T20:00:26.039Z,49.30
2017-12-17T20:02:54.939Z,46.80
2017-12-17T20:05:23.576Z,48.00
2017-12-17T20:07:51.861Z,48.10
2017-12-17T20:10:20.097Z,51.20
2017-12-17T20:12:48.344Z,54.80
2017-12-17T20:15:17.021Z,49.80
2017-12-17T20:17:45.258Z,49.80
2017-12-17T20:20:13.495Z,56.30
2017-12-17T20:22:42.041Z,52.70
2017-12-17T20:25:10.432Z,51.70
2017-12-17T20:27:39.075Z,48.60
2017-12-17T20:30:07.784Z,47.70
2017-12-17T20:32:36.047Z,47.70
2017-12-17T20:35:04.373Z,42.70
2017-12-17T20:37:32.643Z,45.00
2017-12-17T20:40:01.284Z,43.30
2017-12-17T20:42:29.525Z,43.30
2017-12-17T20:44:57.805Z,43.00
2017-12-17T20:47:26.047Z,41.90
2017-12-17T20:49:54.468Z,41.30
2017-12-17T20:52:22.830Z,40.50
2017-12-17T20:54:51.084Z,39.90
2017-12-17T20:57:19.707Z,40.50
2017-12-17T20:59:47.986Z,40.50
2017-12-17T21:02:16.220Z,39.10
2017-12-17T21:04:44.855Z,40.20
2017-12-17T21:07:13.204Z,40.20
2017-12-17T21:09:41.836Z,39.60
2017-12-17T21:12:10.163Z,39.60
2017-12-17T21:14:38.435Z,39.30
2017-12-17T21:17:06.681Z,38.70
2017-12-17T21:19:34.924Z,38.20
2017-12-17T21:22:03.168Z,38.10
2017-12-17T21:24:31.443Z,40.30
2017-12-17T21:26:59.692Z,41.00
2017-12-17T21:29:28.340Z,41.00
2017-12-17T21:31:56.568Z,41.00
2017-12-17T21:34:24.844Z,40.20
2017-12-17T21:36:53.078Z,40.30
2017-12-17T21:39:21.616Z,40.20
2017-12-17T21:41:49.984Z,41.20
2017-12-17T21:44:18.778Z,40.50
2017-12-17T21:46:47.063Z,39.70
2017-12-17T21:49:15.408Z,39.90
2017-12-17T21:51:44.024Z,40.60
2017-12-17T21:54:12.330Z,40.60
2017-12-17T21:56:40.666Z,41.20
2017-12-17T21:59:09.289Z,40.60
2017-12-17T22:01:37.507Z,40.50
2017-12-17T22:04:06.160Z,53.00
2017-12-17T22:06:34.391Z,53.00
2017-12-17T22:09:02.640Z,54.80
2017-12-17T22:11:31.311Z,53.00
2017-12-17T22:13:59.548Z,53.00
2017-12-17T22:16:27.807Z,49.20
2017-12-17T22:18:56.056Z,50.10
2017-12-17T22:21:24.694Z,48.10
2017-12-17T22:23:52.996Z,48.10
2017-12-17T22:26:21.242Z,47.00
2017-12-17T22:28:49.475Z,46.50
2017-12-17T22:31:17.732Z,45.80
2017-12-17T22:33:46.376Z,43.60
2017-12-17T22:36:14.609Z,43.60
2017-12-17T22:38:43.252Z,43.30
2017-12-17T22:41:11.505Z,43.30
2017-12-17T22:43:39.901Z,42.80
2017-12-17T22:46:08.272Z,43.40
2017-12-17T22:48:36.503Z,42.50
2017-12-17T22:51:05.452Z,52.40
2017-12-17T22:53:33.822Z,52.40
2017-12-17T22:56:02.044Z,56.30
2017-12-17T22:58:30.284Z,51.50
2017-12-17T23:00:59.188Z,60.00
2017-12-17T23:03:27.455Z,51.40
2017-12-17T23:05:55.744Z,57.00
2017-12-17T23:08:23.999Z,52.00
2017-12-17T23:10:52.227Z,51.70
2017-12-17T23:13:20.468Z,43.90
2017-12-17T23:15:48.750Z,48.30
2017-12-17T23:18:16.992Z,46.10
2017-12-17T23:20:45.245Z,45.60
2017-12-17T23:23:13.509Z,45.30
2017-12-17T23:25:41.747Z,44.10
2017-12-17T23:28:09.976Z,43.90
2017-12-17T23:30:38.499Z,42.80
2017-12-17T23:33:06.732Z,42.40
2017-12-17T23:35:34.969Z,41.90
2017-12-17T23:38:03.620Z,41.30
2017-12-17T23:40:32.053Z,41.30
2017-12-17T23:43:00.688Z,38.80
2017-12-17T23:45:28.945Z,38.80
2017-12-17T23:47:57.184Z,40.00
2017-12-17T23:50:25.416Z,41.80
2017-12-17T23:52:53.667Z,41.00
2017-12-17T23:55:21.925Z,41.80
2017-12-17T23:57:50.149Z,41.90
